Time;durP1;ratioP1;P1;durP2;ratioP2;P2;SDS_P1;SDS_P2;PMS_P1;PMS_P2;Temp;Humidity;BMP_temperature;BMP_pressure;BME280_temperature;BME280_humidity;BME280_pressure;Samples;Min_cycle;Max_cycle;Signal;HPM_P1;HPM_P2
2022/05/04 00:00:57;;;;;;;10.23;4.28;;;;;;;7.34;100.00;100932.06;5974190;29;20047;-96
2022/05/04 00:03:59;;;;;;;7.45;4.30;;;;;;;7.25;100.00;100927.44;5979105;29;20581;-96
2022/05/04 00:07:01;;;;;;;9.10;4.20;;;;;;;7.31;100.00;100929.66;5975809;29;20069;-95
2022/05/04 00:10:05;;;;;;;9.30;4.13;;;;;;;7.22;100.00;100930.19;5974573;29;20557;-95
2022/05/04 00:13:07;;;;;;;6.63;4.20;;;;;;;7.22;100.00;100934.53;5964219;29;20442;-96
2022/05/04 00:16:09;;;;;;;6.43;4.25;;;;;;;7.19;100.00;100932.97;5974688;29;20038;-95
2022/05/04 00:19:12;;;;;;;8.25;4.10;;;;;;;7.17;100.00;100934.78;5948085;29;20084;-95
2022/05/04 00:22:18;;;;;;;7.10;4.20;;;;;;;7.14;100.00;100940.13;5978813;29;20571;-96
2022/05/04 00:25:20;;;;;;;7.30;4.03;;;;;;;7.06;100.00;100942.31;5973873;29;20046;-94
2022/05/04 00:28:22;;;;;;;8.00;3.95;;;;;;;6.96;100.00;100941.19;5969677;29;20042;-96
2022/05/04 00:31:24;;;;;;;13.18;5.07;;;;;;;6.88;100.00;100939.03;5971511;29;20106;-96
2022/05/04 00:34:26;;;;;;;10.82;4.03;;;;;;;6.93;100.00;100939.59;5976631;29;20046;-96
2022/05/04 00:37:28;;;;;;;10.05;4.93;;;;;;;6.89;100.00;100935.56;5969483;29;20281;-95
2022/05/04 00:40:30;;;;;;;12.98;4.70;;;;;;;6.89;100.00;100931.22;5975942;29;20057;-96
2022/05/04 00:43:32;;;;;;;9.88;4.43;;;;;;;6.91;100.00;100928.59;5971142;29;20218;-96
2022/05/04 00:46:35;;;;;;;8.30;4.13;;;;;;;6.92;100.00;100925.09;5975882;29;20042;-96
2022/05/04 00:49:39;;;;;;;8.77;4.88;;;;;;;6.83;100.00;100921.31;5950892;29;20047;-95
2022/05/04 00:52:43;;;;;;;7.90;4.40;;;;;;;6.78;100.00;100928.47;5975977;29;20046;-95
2022/05/04 00:55:45;;;;;;;9.13;4.53;;;;;;;6.78;100.00;100922.47;5967691;29;20057;-95
2022/05/04 00:59:01;;;;;;;10.68;4.05;;;;;;;6.77;100.00;100928.53;5963580;29;20058;-96
2022/05/04 01:02:04;;;;;;;7.03;4.00;;;;;;;6.80;100.00;100930.91;5971599;29;20050;-95
2022/05/04 01:05:14;;;;;;;10.23;5.00;;;;;;;6.76;100.00;100929.44;5956734;29;20058;-95
2022/05/04 01:08:17;;;;;;;7.72;4.00;;;;;;;6.67;100.00;100929.03;5967733;29;20042;-95
2022/05/04 01:11:20;;;;;;;10.40;4.07;;;;;;;6.63;100.00;100937.88;5984252;29;20145;-95
2022/05/04 01:14:22;;;;;;;8.55;4.22;;;;;;;6.61;100.00;100939.69;5982083;29;20123;-96
2022/05/04 01:17:24;;;;;;;8.15;4.20;;;;;;;6.58;100.00;100928.72;5968908;29;20130;-96
2022/05/04 01:20:27;;;;;;;11.57;4.38;;;;;;;6.47;100.00;100934.47;5966383;29;20058;-95
2022/05/04 01:23:29;;;;;;;13.32;4.53;;;;;;;6.45;100.00;100938.88;5960718;29;20190;-95
2022/05/04 01:26:31;;;;;;;8.30;4.30;;;;;;;6.49;100.00;100939.53;5975503;29;20046;-95
2022/05/04 01:29:33;;;;;;;15.10;4.38;;;;;;;6.44;100.00;100942.38;5955163;29;20066;-95
2022/05/04 01:32:35;;;;;;;9.90;4.40;;;;;;;6.39;100.00;100942.59;5980239;29;20061;-96
2022/05/04 01:35:38;;;;;;;7.28;4.45;;;;;;;6.41;100.00;100938.22;5986044;29;20062;-95
2022/05/04 01:38:40;;;;;;;7.72;3.95;;;;;;;6.37;100.00;100941.03;5973731;29;20039;-95
2022/05/04 01:45:05;;;;;;;7.68;4.10;;;;;;;6.37;100.00;100946.19;5974436;29;20529;-96
2022/05/04 01:48:07;;;;;;;8.65;3.92;;;;;;;6.23;100.00;100942.59;5974092;29;20408;-95
2022/05/04 01:51:09;;;;;;;9.48;4.28;;;;;;;6.11;100.00;100947.56;5981972;29;20046;-96
2022/05/04 01:54:11;;;;;;;11.07;4.55;;;;;;;6.06;100.00;100945.25;5987233;29;20126;-96
2022/05/04 01:57:14;;;;;;;15.48;4.35;;;;;;;6.04;100.00;100944.53;5968478;29;20082;-95
2022/05/04 02:00:16;;;;;;;8.10;4.10;;;;;;;6.03;100.00;100937.69;5971392;29;20595;-95
2022/05/04 02:03:19;;;;;;;11.30;4.28;;;;;;;6.00;100.00;100941.25;5971183;29;20053;-95
2022/05/04 02:06:21;;;;;;;8.77;4.38;;;;;;;5.98;100.00;100947.41;5963600;29;20546;-94
2022/05/04 02:09:23;;;;;;;12.60;4.38;;;;;;;5.97;100.00;100945.75;5979077;29;20055;-95
2022/05/04 02:12:27;;;;;;;11.05;4.50;;;;;;;5.95;100.00;100939.84;5981851;29;20052;-96
2022/05/04 02:15:29;;;;;;;13.05;4.32;;;;;;;5.98;100.00;100944.84;5978713;29;20393;-95
2022/05/04 02:18:33;;;;;;;10.88;5.18;;;;;;;5.96;100.00;100944.94;5975808;29;20085;-95
2022/05/04 02:21:34;;;;;;;6.75;4.10;;;;;;;5.96;100.00;100933.81;5969273;29;20404;-95
2022/05/04 02:24:36;;;;;;;10.30;4.28;;;;;;;5.94;100.00;100931.31;5972012;29;20420;-96
2022/05/04 02:27:38;;;;;;;8.65;4.18;;;;;;;5.89;100.00;100930.72;5975418;29;20098;-95
2022/05/04 02:30:40;;;;;;;11.18;4.45;;;;;;;5.87;100.00;100934.28;5974349;29;20054;-95
2022/05/04 02:33:44;;;;;;;9.73;4.20;;;;;;;5.83;100.00;100933.59;5964456;29;20042;-95
2022/05/04 02:40:08;;;;;;;9.10;4.70;;;;;;;5.81;100.00;100930.28;5968759;29;20057;-96
2022/05/04 02:43:13;;;;;;;8.23;3.85;;;;;;;5.78;100.00;100925.28;5961922;29;20094;-96
2022/05/04 02:46:23;;;;;;;10.15;4.13;;;;;;;5.79;100.00;100920.09;5973821;29;20038;-95
2022/05/04 02:49:25;;;;;;;8.30;4.05;;;;;;;5.81;100.00;100923.41;5970246;29;20042;-96
2022/05/04 02:52:27;;;;;;;11.20;5.07;;;;;;;5.77;100.00;100926.22;5980389;29;20466;-94
2022/05/04 02:55:29;;;;;;;10.93;4.82;;;;;;;5.73;100.00;100917.81;5969030;29;20042;-95
2022/05/04 02:58:31;;;;;;;13.35;4.88;;;;;;;5.68;100.00;100924.94;5963426;29;20501;-95
2022/05/04 03:05:03;;;;;;;9.68;4.38;;;;;;;5.63;100.00;100921.78;5976944;29;20042;-96
2022/05/04 03:08:06;;;;;;;8.77;4.32;;;;;;;5.60;100.00;100924.53;5959183;29;20101;-95
2022/05/04 03:14:28;;;;;;;12.73;4.90;;;;;;;5.51;100.00;100917.28;5976225;29;20050;-94
2022/05/04 03:17:30;;;;;;;9.57;4.22;;;;;;;5.53;100.00;100931.69;5951949;29;20513;-95
2022/05/04 03:20:32;;;;;;;10.82;3.88;;;;;;;5.55;100.00;100918.81;5981808;29;20050;-95
2022/05/04 03:23:34;;;;;;;10.40;4.50;;;;;;;5.52;100.00;100916.41;5986621;29;20042;-95
2022/05/04 03:26:37;;;;;;;9.90;4.13;;;;;;;5.48;100.00;100922.59;5982133;29;20081;-95
2022/05/04 03:29:39;;;;;;;7.97;4.38;;;;;;;5.42;100.00;100920.34;5979714;29;20056;-96
2022/05/04 03:32:41;;;;;;;12.98;4.72;;;;;;;5.37;100.00;100916.25;5975794;29;20064;-95
2022/05/04 03:35:42;;;;;;;9.80;4.25;;;;;;;5.36;100.00;100914.59;5984691;29;20046;-96
2022/05/04 03:38:45;;;;;;;10.55;4.28;;;;;;;5.40;100.00;100902.44;5979228;29;20126;-95
2022/05/04 03:41:47;;;;;;;9.68;4.63;;;;;;;5.44;100.00;100905.66;5977170;29;20101;-95
2022/05/04 03:44:50;;;;;;;14.93;4.85;;;;;;;5.44;100.00;100909.09;5966377;29;20050;-94
2022/05/04 03:47:52;;;;;;;13.07;4.10;;;;;;;5.47;100.00;100906.34;5977672;29;20512;-95
2022/05/04 03:51:00;;;;;;;9.95;4.25;;;;;;;5.53;100.00;100903.47;5952828;29;20792;-96
2022/05/04 03:54:02;;;;;;;12.40;4.55;;;;;;;5.51;100.00;100904.44;5962406;29;20681;-96
2022/05/04 03:57:05;;;;;;;11.50;4.65;;;;;;;5.49;100.00;100901.13;5965162;29;20070;-96
2022/05/04 04:00:09;;;;;;;8.55;4.35;;;;;;;5.46;100.00;100909.00;5975858;29;20038;-95
2022/05/04 04:03:11;;;;;;;12.32;4.30;;;;;;;5.45;100.00;100905.59;5961388;29;20149;-96
2022/05/04 04:06:14;;;;;;;10.07;4.25;;;;;;;5.44;100.00;100903.09;5973849;29;20046;-95
2022/05/04 04:09:22;;;;;;;10.02;4.68;;;;;;;5.47;100.00;100903.78;5968064;29;20046;-95
2022/05/04 04:12:26;;;;;;;9.75;4.63;;;;;;;5.51;100.00;100902.72;5962874;29;20069;-96
2022/05/04 04:15:28;;;;;;;7.68;4.05;;;;;;;5.52;100.00;100906.94;5952259;29;20537;-96
2022/05/04 04:18:30;;;;;;;10.38;4.43;;;;;;;5.59;100.00;100902.34;5975661;29;20361;-95
2022/05/04 04:21:50;;;;;;;6.05;4.32;;;;;;;5.61;100.00;100915.91;5966264;29;20532;-95
2022/05/04 04:24:52;;;;;;;8.88;4.35;;;;;;;5.69;100.00;100918.06;5951211;29;20081;-96
2022/05/04 04:27:54;;;;;;;7.03;4.00;;;;;;;5.74;100.00;100916.94;5982045;29;20618;-95
2022/05/04 04:30:56;;;;;;;7.80;3.78;;;;;;;5.76;100.00;100927.97;5972783;29;20046;-95
2022/05/04 04:34:01;;;;;;;10.27;3.88;;;;;;;5.70;100.00;100920.56;5980356;29;20061;-95
2022/05/04 04:37:03;;;;;;;12.50;4.65;;;;;;;5.76;100.00;100917.69;5980621;29;20518;-95
2022/05/04 04:40:05;;;;;;;9.48;4.50;;;;;;;5.91;100.00;100925.47;5970305;29;20098;-95
2022/05/04 04:43:07;;;;;;;18.27;4.22;;;;;;;5.97;100.00;100930.34;5969262;29;20050;-95
2022/05/04 04:46:09;;;;;;;10.32;4.32;;;;;;;5.98;100.00;100924.28;5969560;29;20066;-96
2022/05/04 04:49:11;;;;;;;6.53;4.10;;;;;;;6.06;100.00;100927.25;5973917;29;20519;-96
2022/05/04 04:52:13;;;;;;;10.10;4.43;;;;;;;6.08;100.00;100929.75;5966385;29;20373;-95
2022/05/04 04:55:15;;;;;;;12.57;4.47;;;;;;;6.10;100.00;100933.06;5952440;29;20053;-94
2022/05/04 04:58:17;;;;;;;11.35;4.68;;;;;;;6.14;100.00;100930.25;5965330;29;20042;-94
2022/05/04 05:01:19;;;;;;;10.48;4.28;;;;;;;6.19;100.00;100933.41;5975124;29;21762;-95
2022/05/04 05:04:21;;;;;;;9.98;5.60;;;;;;;6.25;100.00;100930.50;5972536;29;20042;-96
2022/05/04 05:07:23;;;;;;;12.18;4.70;;;;;;;6.31;100.00;100926.78;5966808;29;20046;-94
2022/05/04 05:10:25;;;;;;;8.40;4.43;;;;;;;6.37;100.00;100921.28;5967530;29;20042;-96
2022/05/04 05:13:27;;;;;;;14.20;5.07;;;;;;;6.44;100.00;100927.75;5969198;29;20050;-95
2022/05/04 05:16:29;;;;;;;8.40;4.03;;;;;;;6.50;100.00;100933.47;5970065;29;20046;-96
2022/05/04 05:19:31;;;;;;;11.20;3.97;;;;;;;6.55;100.00;100926.31;5967547;29;20663;-95
2022/05/04 05:22:33;;;;;;;10.88;4.50;;;;;;;6.56;100.00;100931.41;5976461;29;20476;-95
2022/05/04 05:25:35;;;;;;;11.80;4.82;;;;;;;6.60;100.00;100930.28;5972832;29;20505;-95
2022/05/04 05:28:37;;;;;;;18.40;4.80;;;;;;;6.66;100.00;100929.97;5975862;29;20580;-96
2022/05/04 05:31:39;;;;;;;8.27;4.40;;;;;;;6.73;100.00;100929.59;5972031;29;20061;-96
2022/05/04 05:34:41;;;;;;;10.35;4.43;;;;;;;6.76;100.00;100932.84;5983327;29;20054;-95
2022/05/04 05:37:43;;;;;;;12.45;5.07;;;;;;;6.83;100.00;100930.75;5982899;29;20416;-95
2022/05/04 05:40:51;;;;;;;12.18;4.55;;;;;;;6.91;100.00;100936.31;5967783;29;20049;-95
2022/05/04 05:43:53;;;;;;;12.43;4.80;;;;;;;6.95;100.00;100936.94;5976041;29;20524;-95
2022/05/04 05:46:55;;;;;;;15.05;5.10;;;;;;;7.02;100.00;100938.25;5983810;29;20046;-95
2022/05/04 05:49:57;;;;;;;17.00;5.18;;;;;;;7.09;100.00;100939.56;5966446;29;20050;-95
2022/05/04 05:53:05;;;;;;;13.32;5.45;;;;;;;7.18;100.00;100938.19;5953551;29;20088;-95
2022/05/04 05:56:07;;;;;;;15.52;5.60;;;;;;;7.23;100.00;100938.75;5966485;29;20053;-95
2022/05/04 05:59:09;;;;;;;15.15;4.68;;;;;;;7.32;100.00;100945.94;5968703;29;20583;-95
2022/05/04 06:02:11;;;;;;;8.80;4.10;;;;;;;7.40;100.00;100938.59;5945456;29;20051;-96
2022/05/04 06:05:14;;;;;;;10.73;4.57;;;;;;;7.47;100.00;100939.06;5972153;29;20902;-96
2022/05/04 06:08:16;;;;;;;9.20;4.85;;;;;;;7.56;100.00;100933.38;5968201;29;20088;-96
2022/05/04 06:11:18;;;;;;;13.48;4.78;;;;;;;7.68;100.00;100922.31;5972379;29;20129;-96
2022/05/04 06:14:20;;;;;;;12.63;4.82;;;;;;;7.85;100.00;100929.03;5956602;29;20672;-96
2022/05/04 06:17:22;;;;;;;9.48;4.35;;;;;;;7.99;100.00;100926.41;5967016;29;20595;-96
2022/05/04 06:20:24;;;;;;;12.98;4.47;;;;;;;8.06;100.00;100924.28;5969807;29;20477;-96
2022/05/04 06:23:27;;;;;;;11.80;4.82;;;;;;;8.18;100.00;100925.28;5974577;29;20497;-96
2022/05/04 06:26:28;;;;;;;11.60;4.90;;;;;;;8.24;100.00;100924.91;5971716;29;20566;-95
2022/05/04 06:36:14;;;;;;;9.73;4.68;;;;;;;8.68;100.00;100928.19;5909315;30;20197;-96
2022/05/04 06:39:16;;;;;;;10.85;4.68;;;;;;;8.90;100.00;100928.47;5886215;30;20518;-95
2022/05/04 06:42:18;;;;;;;14.27;4.93;;;;;;;9.19;100.00;100936.03;5873523;30;20060;-95
2022/05/04 06:45:20;;;;;;;8.85;4.47;;;;;;;9.50;100.00;100927.03;5906814;30;20060;-96
2022/05/04 06:48:22;;;;;;;11.73;4.45;;;;;;;9.70;100.00;100942.00;5901758;30;20828;-95
2022/05/04 06:51:24;;;;;;;12.23;4.63;;;;;;;9.78;100.00;100936.31;5903808;30;20138;-96
2022/05/04 06:54:26;;;;;;;13.75;4.65;;;;;;;9.75;100.00;100938.28;5906148;30;20060;-96
2022/05/04 06:57:28;;;;;;;11.52;4.85;;;;;;;9.70;99.97;100934.25;5890247;30;20120;-95
2022/05/04 07:00:30;;;;;;;15.18;4.75;;;;;;;9.72;100.00;100931.56;5903704;30;20509;-95
2022/05/04 07:03:33;;;;;;;12.60;4.70;;;;;;;9.70;99.17;100928.28;5903917;30;20128;-96
2022/05/04 07:06:35;;;;;;;13.38;4.88;;;;;;;9.70;100.00;100934.25;5904999;30;20548;-95
2022/05/04 07:09:37;;;;;;;9.13;3.85;;;;;;;9.73;99.73;100934.97;5930768;29;20581;-96
2022/05/04 07:12:39;;;;;;;10.68;4.13;;;;;;;9.79;97.68;100934.53;5974723;29;20058;-95
2022/05/04 07:15:44;;;;;;;9.40;4.20;;;;;;;9.85;96.52;100934.97;5964362;29;20542;-96
2022/05/04 07:18:46;;;;;;;13.63;4.40;;;;;;;9.87;96.22;100930.50;5977704;29;20561;-95
2022/05/04 07:21:48;;;;;;;10.23;3.88;;;;;;;9.88;94.85;100939.09;5972683;29;20046;-95
2022/05/04 07:24:51;;;;;;;13.18;3.90;;;;;;;9.93;93.23;100935.25;5973489;29;20131;-95
2022/05/04 07:27:53;;;;;;;9.32;3.75;;;;;;;9.89;93.46;100933.81;5962306;29;20082;-96
2022/05/04 07:30:55;;;;;;;8.70;3.35;;;;;;;9.96;93.92;100935.97;5972930;29;20430;-96
2022/05/04 07:34:00;;;;;;;9.27;3.70;;;;;;;10.00;93.22;100929.66;5972813;29;20296;-95
2022/05/04 07:37:04;;;;;;;8.90;4.00;;;;;;;10.10;90.64;100926.31;5973562;29;20489;-95
2022/05/04 07:43:28;;;;;;;9.88;3.55;;;;;;;10.21;89.47;100937.66;5978280;29;20046;-95
2022/05/04 07:46:30;;;;;;;7.93;3.63;;;;;;;10.25;90.18;100932.16;5954287;29;20055;-96
2022/05/04 07:49:35;;;;;;;10.25;3.90;;;;;;;10.27;89.62;100924.28;5976973;29;20563;-96
2022/05/04 07:52:38;;;;;;;9.77;3.78;;;;;;;10.37;90.16;100927.91;5973160;29;20858;-95
2022/05/04 07:55:40;;;;;;;8.45;3.65;;;;;;;10.47;89.48;100930.66;5974186;29;20512;-95
2022/05/04 07:58:42;;;;;;;11.95;3.72;;;;;;;10.53;88.60;100931.06;5976777;29;20108;-95
2022/05/04 08:05:07;;;;;;;10.52;3.60;;;;;;;10.66;87.25;100932.75;5975697;29;20528;-96
2022/05/04 08:08:09;;;;;;;8.90;3.38;;;;;;;10.69;88.04;100932.53;5970233;29;20423;-95
2022/05/04 08:11:12;;;;;;;10.70;3.63;;;;;;;10.78;87.41;100932.69;5972358;29;20330;-96
2022/05/04 08:14:16;;;;;;;8.65;3.30;;;;;;;10.85;85.93;100932.22;5973333;29;20043;-95
2022/05/04 08:17:19;;;;;;;8.68;3.38;;;;;;;10.89;85.77;100931.88;5957873;29;20054;-95
2022/05/04 08:20:21;;;;;;;10.27;3.85;;;;;;;11.03;85.84;100930.03;5951130;29;20050;-95
2022/05/04 08:23:24;;;;;;;11.82;3.75;;;;;;;11.13;85.03;100923.22;5974282;29;20046;-96
2022/05/04 08:26:27;;;;;;;13.88;3.67;;;;;;;11.26;84.54;100936.91;5951828;29;20050;-94
2022/05/04 08:29:32;;;;;;;11.82;3.42;;;;;;;11.33;84.24;100940.72;5965159;29;20412;-94
2022/05/04 08:32:34;;;;;;;10.85;3.70;;;;;;;11.58;78.21;100937.06;5973164;29;20134;-95
2022/05/04 08:35:36;;;;;;;12.25;3.40;;;;;;;11.37;78.94;100929.16;5974070;29;20051;-95
2022/05/04 08:38:39;;;;;;;6.72;3.05;;;;;;;11.39;79.35;100929.84;5969327;29;20052;-95
2022/05/04 08:41:42;;;;;;;8.38;3.47;;;;;;;11.45;78.38;100925.16;5952506;29;20058;-95
2022/05/04 08:44:52;;;;;;;11.18;3.60;;;;;;;11.57;80.98;100929.41;5964948;29;20046;-95
2022/05/04 08:47:55;;;;;;;9.60;3.20;;;;;;;11.68;80.22;100923.41;5942148;29;20647;-95
2022/05/04 08:51:05;;;;;;;7.70;3.70;;;;;;;11.85;81.44;100922.91;5969995;29;20505;-95
2022/05/04 08:54:09;;;;;;;7.22;3.30;;;;;;;12.01;81.03;100923.38;5952275;29;20194;-95
2022/05/04 08:57:12;;;;;;;10.50;3.72;;;;;;;12.04;79.46;100919.72;5973382;29;20495;-95
2022/05/04 09:00:15;;;;;;;8.23;3.58;;;;;;;12.07;81.98;100920.31;5970161;29;20088;-95
2022/05/04 09:03:18;;;;;;;9.40;3.70;;;;;;;12.17;80.19;100917.78;5974597;29;20047;-95
2022/05/04 09:06:29;;;;;;;11.35;4.00;;;;;;;12.31;81.97;100903.72;5975194;29;20505;-94
2022/05/04 09:09:34;;;;;;;15.45;4.15;;;;;;;12.43;79.00;100914.91;5954432;29;20052;-94
2022/05/04 09:12:37;;;;;;;8.18;3.83;;;;;;;12.49;77.95;100907.44;5942166;29;20062;-94
2022/05/04 09:15:40;;;;;;;9.93;3.38;;;;;;;12.60;77.21;100906.56;5971437;29;20050;-94
2022/05/04 09:18:46;;;;;;;9.90;4.03;;;;;;;12.68;75.65;100908.53;5936485;29;20097;-95
2022/05/04 09:21:49;;;;;;;11.13;3.55;;;;;;;12.61;74.28;100897.81;5968420;29;20082;-94
2022/05/04 09:24:51;;;;;;;13.70;3.90;;;;;;;12.73;70.75;100902.97;5966061;29;20106;-94
2022/05/04 09:27:53;;;;;;;10.57;3.70;;;;;;;12.64;72.33;100899.34;5948358;29;20364;-94
2022/05/04 09:31:08;;;;;;;10.55;3.83;;;;;;;12.68;74.11;100901.56;5967225;29;20129;-93
2022/05/04 09:34:10;;;;;;;7.05;3.45;;;;;;;12.88;74.78;100897.34;5970223;29;20043;-93
2022/05/04 09:47:22;;;;;;;8.68;3.65;;;;;;;13.46;67.68;100896.84;5970470;29;20650;-93
2022/05/04 09:50:26;;;;;;;9.18;3.78;;;;;;;13.62;66.55;100893.75;5979239;29;20900;-93
2022/05/04 09:53:28;;;;;;;8.02;3.40;;;;;;;13.56;70.06;100892.53;5955261;29;20504;-93
2022/05/04 09:56:30;;;;;;;13.00;4.22;;;;;;;13.58;66.59;100889.78;5972429;29;20050;-93
2022/05/04 09:59:34;;;;;;;10.07;3.50;;;;;;;13.58;69.58;100893.19;5976482;29;20057;-94
2022/05/04 10:02:37;;;;;;;7.60;3.75;;;;;;;13.68;68.24;100882.81;5978359;29;20521;-93
2022/05/04 10:05:40;;;;;;;12.13;3.88;;;;;;;13.81;68.40;100889.56;5965338;29;20089;-93
2022/05/04 10:08:42;;;;;;;8.93;3.92;;;;;;;14.05;65.53;100881.41;5982152;29;20054;-93
2022/05/04 10:11:45;;;;;;;16.25;3.95;;;;;;;14.21;64.37;100881.72;5974269;29;20491;-93
2022/05/04 10:14:48;;;;;;;9.60;4.07;;;;;;;14.28;64.28;100879.38;5961733;29;20165;-93
2022/05/04 10:17:55;;;;;;;8.60;4.05;;;;;;;14.38;65.05;100878.41;5973728;29;20125;-92
2022/05/04 10:21:02;;;;;;;10.60;4.00;;;;;;;14.52;63.46;100879.78;5980518;29;20053;-93
2022/05/04 10:24:09;;;;;;;9.35;3.95;;;;;;;14.66;62.27;100875.97;5956022;29;20050;-91
2022/05/04 10:27:22;;;;;;;9.18;3.60;;;;;;;14.67;63.90;100882.00;5961553;29;20469;-94
2022/05/04 10:30:34;;;;;;;8.85;3.90;;;;;;;14.66;62.93;100870.75;5978835;29;20054;-95
2022/05/04 10:33:38;;;;;;;8.18;3.80;;;;;;;14.67;64.11;100869.78;5981626;29;20053;-95
2022/05/04 10:37:00;;;;;;;8.38;4.05;;;;;;;14.79;64.56;100865.25;5965607;29;20046;-95
2022/05/04 10:40:10;;;;;;;8.70;4.18;;;;;;;14.89;62.01;100854.81;5974581;29;20058;-95
2022/05/04 10:43:16;;;;;;;9.95;4.13;;;;;;;15.08;60.24;100859.97;5975496;29;20046;-95
2022/05/04 10:46:25;;;;;;;8.27;4.28;;;;;;;15.10;60.60;100846.78;5978078;29;20173;-95
2022/05/04 10:49:39;;;;;;;10.90;3.80;;;;;;;15.28;62.21;100845.88;5973842;29;20533;-94
2022/05/04 10:52:47;;;;;;;11.88;4.40;;;;;;;15.50;59.10;100838.63;5952045;29;20509;-95
2022/05/04 10:55:56;;;;;;;10.00;4.82;;;;;;;15.64;57.45;100845.97;5957072;29;20154;-95
2022/05/04 10:59:01;;;;;;;10.18;4.43;;;;;;;15.61;59.35;100845.44;5957789;29;20052;-95
2022/05/04 11:02:09;;;;;;;10.15;4.18;;;;;;;15.72;57.63;100840.03;5952943;29;20050;-94
2022/05/04 11:05:13;;;;;;;10.43;4.30;;;;;;;15.92;62.77;100838.13;5951311;29;20053;-94
2022/05/04 11:08:25;;;;;;;11.43;4.22;;;;;;;16.19;65.52;100836.41;5978941;29;20584;-94
2022/05/04 11:11:27;;;;;;;12.90;4.68;;;;;;;16.42;62.62;100834.16;5982793;29;20054;-94
2022/05/04 11:14:30;;;;;;;8.20;4.45;;;;;;;16.58;58.88;100832.47;5973285;29;20038;-94
2022/05/04 11:17:33;;;;;;;11.52;4.63;;;;;;;16.63;55.60;100829.41;5969499;29;20042;-91
2022/05/04 11:20:46;;;;;;;9.75;4.72;;;;;;;16.61;53.43;100833.16;5970014;29;20421;-90
2022/05/04 11:23:50;;;;;;;9.27;4.57;;;;;;;16.39;55.74;100822.22;5979629;29;20785;-91
2022/05/04 11:26:53;;;;;;;8.98;4.47;;;;;;;16.35;57.93;100818.28;5972798;29;20329;-91
2022/05/04 11:29:57;;;;;;;9.38;4.50;;;;;;;16.52;60.71;100817.44;5967164;29;20076;-91
2022/05/04 11:33:06;;;;;;;8.93;4.30;;;;;;;16.65;59.25;100817.03;5956588;29;20214;-91
2022/05/04 11:36:10;;;;;;;7.72;4.38;;;;;;;16.83;56.40;100817.00;5959991;29;20054;-91
2022/05/04 11:39:21;;;;;;;10.60;4.50;;;;;;;17.01;60.46;100822.97;5961168;29;20050;-90
2022/05/04 11:42:23;;;;;;;10.10;4.32;;;;;;;17.29;60.28;100814.94;5966190;29;20391;-91
2022/05/04 11:45:25;;;;;;;13.25;5.68;;;;;;;17.38;55.52;100811.34;5968062;29;20057;-91
2022/05/04 11:48:30;;;;;;;10.00;4.75;;;;;;;17.20;58.39;100803.59;5975056;29;20130;-91
2022/05/04 11:51:32;;;;;;;12.27;5.32;;;;;;;17.38;59.53;100811.34;5981402;29;20357;-91
2022/05/04 11:54:34;;;;;;;10.55;4.70;;;;;;;17.67;56.50;100804.88;5966724;29;20046;-90
2022/05/04 11:57:43;;;;;;;10.35;4.63;;;;;;;17.90;55.63;100799.06;5969476;29;20042;-90
2022/05/04 12:00:46;;;;;;;9.07;4.75;;;;;;;18.23;55.16;100805.13;5958764;29;20061;-91
2022/05/04 12:03:50;;;;;;;7.30;4.40;;;;;;;18.21;57.25;100801.84;5967379;29;20572;-91
2022/05/04 12:06:54;;;;;;;10.75;5.10;;;;;;;17.97;56.25;100794.81;5983642;29;20058;-92
2022/05/04 12:09:55;;;;;;;8.25;4.90;;;;;;;17.63;56.05;100787.84;5931175;29;20102;-91
2022/05/04 12:13:02;;;;;;;9.98;5.28;;;;;;;17.46;58.13;100788.78;5944805;29;20546;-91
2022/05/04 12:16:08;;;;;;;9.07;4.97;;;;;;;17.25;59.63;100781.38;5984446;29;20050;-92
2022/05/04 12:19:10;;;;;;;10.07;4.97;;;;;;;16.97;58.61;100782.41;5972709;29;20158;-93
2022/05/04 12:22:13;;;;;;;9.02;5.20;;;;;;;16.87;60.76;100779.09;5962035;29;20050;-92
2022/05/04 12:25:15;;;;;;;10.07;4.80;;;;;;;16.93;60.12;100781.09;5968488;29;20050;-92
2022/05/04 12:28:16;;;;;;;9.48;5.25;;;;;;;17.17;58.51;100771.72;5955063;29;20128;-93
2022/05/04 12:34:44;;;;;;;8.40;5.63;;;;;;;17.89;58.46;100766.81;5969529;29;20521;-92
2022/05/04 12:37:50;;;;;;;9.15;5.20;;;;;;;18.26;56.88;100771.56;5966532;29;20054;-93
2022/05/04 12:40:53;;;;;;;10.65;5.72;;;;;;;18.58;53.49;100772.47;5953553;29;20054;-93
2022/05/04 12:44:08;;;;;;;8.80;4.88;;;;;;;18.59;56.17;100761.00;5963527;29;20161;-93
2022/05/04 12:47:13;;;;;;;12.15;4.60;;;;;;;18.38;54.52;100760.72;5945588;29;20065;-93
2022/05/04 12:50:15;;;;;;;7.15;4.32;;;;;;;18.55;57.69;100753.66;5971979;29;20046;-91
2022/05/04 12:53:17;;;;;;;14.52;6.43;;;;;;;19.13;56.41;100747.25;5938115;29;20050;-91
2022/05/04 12:59:41;;;;;;;11.82;5.60;;;;;;;21.15;50.94;100748.44;5966942;29;20065;-91
2022/05/04 13:02:45;;;;;;;10.43;5.82;;;;;;;21.67;49.12;100752.66;5975374;29;20089;-91
2022/05/04 13:05:48;;;;;;;10.35;6.00;;;;;;;21.89;45.86;100748.19;5970777;29;20860;-91
2022/05/04 13:08:51;;;;;;;13.75;6.43;;;;;;;21.84;45.13;100746.13;5963094;29;20067;-91
2022/05/04 13:11:53;;;;;;;9.57;6.07;;;;;;;21.89;46.53;100749.00;5969984;29;20053;-93
2022/05/04 13:14:55;;;;;;;14.02;5.97;;;;;;;22.30;44.85;100739.59;5949370;29;20055;-92
2022/05/04 13:17:58;;;;;;;10.80;6.40;;;;;;;22.84;42.79;100738.06;5980558;29;20053;-92
2022/05/04 13:21:00;;;;;;;12.85;7.35;;;;;;;23.00;44.05;100740.38;5968184;29;20053;-93
2022/05/04 13:24:03;;;;;;;11.82;7.63;;;;;;;22.73;42.15;100736.78;5971032;29;20074;-91
2022/05/04 13:27:09;;;;;;;10.70;6.38;;;;;;;22.07;39.07;100737.97;5974222;29;20050;-92
2022/05/04 13:30:11;;;;;;;10.02;5.85;;;;;;;21.54;41.29;100724.38;5971825;29;20057;-93
2022/05/04 13:33:14;;;;;;;10.15;5.80;;;;;;;21.37;42.90;100728.22;5972046;29;20050;-94
2022/05/04 13:36:19;;;;;;;9.75;5.30;;;;;;;21.22;43.72;100723.81;5978790;29;20378;-93
2022/05/04 13:39:21;;;;;;;12.98;6.00;;;;;;;20.81;45.66;100721.69;5976812;29;20062;-94
2022/05/04 13:42:23;;;;;;;11.88;5.95;;;;;;;20.43;46.35;100713.09;5974268;29;21872;-93
2022/05/04 13:45:25;;;;;;;12.35;6.47;;;;;;;20.43;44.76;100718.34;5957102;29;20083;-93
2022/05/04 13:48:28;;;;;;;13.65;7.03;;;;;;;20.58;44.66;100715.75;5976135;29;20043;-93
2022/05/04 13:54:51;;;;;;;9.27;5.90;;;;;;;21.00;44.59;100712.41;5975321;29;20051;-94
2022/05/04 13:57:53;;;;;;;11.88;5.65;;;;;;;21.13;44.38;100711.75;5974484;29;20073;-93
2022/05/04 14:00:59;;;;;;;10.50;6.25;;;;;;;21.09;42.67;100705.22;5952344;29;20043;-93
2022/05/04 14:04:04;;;;;;;8.02;5.97;;;;;;;21.16;42.14;100711.38;5976457;29;20053;-93
2022/05/04 14:07:10;;;;;;;11.00;5.90;;;;;;;20.88;42.91;100705.19;5969555;29;20062;-94
2022/05/04 14:10:13;;;;;;;7.70;5.65;;;;;;;20.91;46.79;100707.44;5967201;29;20054;-94
2022/05/04 14:13:24;;;;;;;9.95;6.13;;;;;;;21.08;44.88;100699.13;5961810;29;20493;-93
2022/05/04 14:16:27;;;;;;;9.88;5.90;;;;;;;21.03;43.68;100703.34;5978804;29;20054;-96
2022/05/04 14:19:29;;;;;;;13.07;5.78;;;;;;;21.13;42.37;100698.59;5949453;29;20708;-95
2022/05/04 14:22:31;;;;;;;11.57;5.93;;;;;;;21.21;43.00;100708.19;5969169;29;20054;-93
2022/05/04 14:25:33;;;;;;;9.68;6.63;;;;;;;21.00;43.06;100699.25;5970971;29;20050;-93
2022/05/04 14:28:35;;;;;;;10.57;6.43;;;;;;;20.67;44.86;100701.50;5967385;29;20911;-94
2022/05/04 14:31:38;;;;;;;12.88;7.05;;;;;;;20.39;45.58;100704.72;5976848;29;20100;-93
2022/05/04 14:34:40;;;;;;;11.18;7.18;;;;;;;19.94;45.84;100701.22;5975720;29;20050;-93
2022/05/04 14:37:43;;;;;;;10.85;6.90;;;;;;;19.75;46.49;100696.47;5969752;29;20062;-92
2022/05/04 14:40:45;;;;;;;10.13;7.13;;;;;;;20.17;47.21;100698.56;5954536;29;20046;-94
2022/05/04 14:43:47;;;;;;;11.48;6.40;;;;;;;21.00;44.33;100708.97;5970220;29;20046;-95
2022/05/04 14:46:49;;;;;;;8.93;6.63;;;;;;;21.18;44.20;100705.94;5970135;29;20182;-92
2022/05/04 14:49:51;;;;;;;8.60;6.47;;;;;;;21.11;45.66;100702.41;5972290;29;20054;-94
2022/05/04 14:52:53;;;;;;;10.45;7.00;;;;;;;21.19;43.95;100708.38;5972962;29;20123;-94
2022/05/04 14:55:56;;;;;;;8.52;6.45;;;;;;;21.26;42.07;100708.44;5949888;29;20057;-93